PWSweather.com
Personal Weather Stations
Station Observations
J24K28P63
Vysocina, PocatkyCZ 39464

VysocinaPocatkyCZ 39464

Lat: 49.2594238, Lon: 15.2331769

Elevation: 2011

Station Type: Vantage Pro2+

http://meteo-jirkalina.com

High Low Average
Temperature 83.9°F28.8°C 53.2°F11.8°C 72.5°F22.5°C
Dew Point 58.7°F14.8°C 35.7°F2.1°C 51.1°F10.6°C
Winds 14.0 mph 22.5 kmh Calm Calm 5.0 mph SW8.0 kmh SW
Wind Gusts 18.0 mph29.0 kmh -- 7.0 mph11.3 kmh
Humidity 99% 26% 52%
Pressure 30.17 in1021.7 mb 30.05 in1017.6 mb -
Precipitation 0.03 in0.8 mm - -
Hour Temp Dew Point Humidity Winds Wind Gusts Pressure Precip Precip Rate Daily Precip Total
12:00 AM 59.8°F15.4°C 58.7°F14.8°C 96% 0.2 mph WSW0.3 kmh WSW 2.0 mph3.2 kmh 30.15 in1021.0 mb - 0.00 in0.0 mm 0.00 in0.0 mm
12:30 AM 59.0°F15.0°C 57.9°F14.4°C 96% Calm Calm -- 30.15 in1021.0 mb - 0.00 in0.0 mm 0.00 in0.0 mm
01:00 AM 58.9°F14.9°C 57.8°F14.3°C 96% Calm Calm -- 30.14 in1020.7 mb - 0.00 in0.0 mm 0.00 in0.0 mm
01:30 AM 58.7°F14.8°C 57.6°F14.2°C 96% Calm Calm -- 30.14 in1020.7 mb - 0.00 in0.0 mm 0.00 in0.0 mm
02:00 AM 58.7°F14.8°C 57.9°F14.4°C 97% Calm Calm -- 30.13 in1020.3 mb - 0.00 in0.0 mm 0.00 in0.0 mm
02:30 AM 58.1°F14.5°C 57.3°F14.1°C 97% Calm Calm -- 30.14 in1020.7 mb - 0.02 in0.5 mm 0.02 in0.5 mm
03:00 AM 58.1°F14.5°C 57.3°F14.1°C 97% Calm Calm -- 30.13 in1020.3 mb - 0.00 in0.0 mm 0.02 in0.5 mm
03:30 AM 58.0°F14.4°C 57.4°F14.1°C 98% Calm Calm -- 30.12 in1020.0 mb - 0.00 in0.0 mm 0.02 in0.5 mm
04:00 AM 58.0°F14.4°C 57.4°F14.1°C 98% Calm Calm -- 30.11 in1019.6 mb - 0.00 in0.0 mm 0.02 in0.5 mm
04:30 AM 58.0°F14.4°C 57.7°F14.3°C 99% Calm Calm -- 30.11 in1019.6 mb - 0.00 in0.0 mm 0.02 in0.5 mm
05:00 AM 57.8°F14.3°C 57.5°F14.2°C 99% Calm Calm -- 30.11 in1019.6 mb - 0.00 in0.0 mm 0.02 in0.5 mm
05:20 AM 53.2°F11.8°C 51.2°F10.7°C 93% Calm Calm -- 30.17 in1021.7 mb - 0.00 in0.0 mm 0.02 in0.5 mm
05:30 AM 54.0°F12.2°C 52.1°F11.2°C 93% Calm Calm -- 30.17 in1021.7 mb - 0.00 in0.0 mm 0.02 in0.5 mm
05:40 AM 55.1°F12.8°C 53.1°F11.7°C 93% Calm Calm -- 30.17 in1021.7 mb - 0.00 in0.0 mm 0.02 in0.5 mm
05:50 AM 57.0°F13.9°C 55.0°F12.8°C 93% Calm Calm -- 30.17 in1021.7 mb - 0.00 in0.0 mm 0.02 in0.5 mm
06:00 AM 59.9°F15.5°C 56.4°F13.6°C 88% Calm Calm 1.0 mph1.6 kmh 30.17 in1021.7 mb - 0.00 in0.0 mm 0.02 in0.5 mm
06:10 AM 61.1°F16.2°C 55.9°F13.3°C 83% 1.0 mph SW1.6 kmh SW 2.0 mph3.2 kmh 30.17 in1021.7 mb - 0.00 in0.0 mm 0.02 in0.5 mm
06:20 AM 60.7°F15.9°C 55.8°F13.2°C 84% Calm Calm 1.0 mph1.6 kmh 30.17 in1021.7 mb - 0.00 in0.0 mm 0.02 in0.5 mm
06:30 AM 63.3°F17.4°C 56.7°F13.7°C 79% 1.0 mph SW1.6 kmh SW 3.0 mph4.8 kmh 30.17 in1021.7 mb - 0.00 in0.0 mm 0.02 in0.5 mm
06:40 AM 65.6°F18.7°C 57.1°F13.9°C 74% 3.0 mph SW4.8 kmh SW 6.0 mph9.7 kmh 30.17 in1021.7 mb - 0.00 in0.0 mm 0.02 in0.5 mm
06:50 AM 65.1°F18.4°C 56.2°F13.4°C 73% 1.0 mph SW1.6 kmh SW 3.0 mph4.8 kmh 30.17 in1021.7 mb - 0.00 in0.0 mm 0.02 in0.5 mm
07:00 AM 65.5°F18.6°C 57.0°F13.9°C 74% Calm Calm 2.0 mph3.2 kmh 30.17 in1021.7 mb - 0.00 in0.0 mm 0.02 in0.5 mm
07:10 AM 67.3°F19.6°C 57.2°F14.0°C 70% 3.0 mph SW4.8 kmh SW 6.0 mph9.7 kmh 30.17 in1021.7 mb - 0.00 in0.0 mm 0.02 in0.5 mm
07:20 AM 68.3°F20.2°C 57.3°F14.1°C 68% 2.0 mph SW3.2 kmh SW 5.0 mph8.0 kmh 30.17 in1021.7 mb - 0.00 in0.0 mm 0.02 in0.5 mm
07:30 AM 60.1°F15.6°C 58.7°F14.8°C 95% Calm Calm -- 30.13 in1020.3 mb - 0.00 in0.0 mm 0.03 in0.8 mm
07:40 AM 70.5°F21.4°C 57.7°F14.3°C 64% 1.0 mph SW1.6 kmh SW 3.0 mph4.8 kmh 30.17 in1021.7 mb - 0.00 in0.0 mm 0.02 in0.5 mm
07:50 AM 71.3°F21.8°C 57.6°F14.2°C 62% 2.0 mph SW3.2 kmh SW 3.0 mph4.8 kmh 30.17 in1021.7 mb - 0.00 in0.0 mm 0.02 in0.5 mm
08:00 AM 72.2°F22.3°C 57.5°F14.2°C 60% 3.0 mph SW4.8 kmh SW 3.0 mph4.8 kmh 30.17 in1021.7 mb - 0.00 in0.0 mm 0.02 in0.5 mm
08:10 AM 72.9°F22.7°C 57.8°F14.3°C 59% 1.0 mph SSW1.6 kmh SSW 3.0 mph4.8 kmh 30.16 in1021.3 mb - 0.00 in0.0 mm 0.02 in0.5 mm
08:20 AM 74.2°F23.4°C 57.5°F14.2°C 56% 1.0 mph SSW1.6 kmh SSW 2.0 mph3.2 kmh 30.16 in1021.3 mb - 0.00 in0.0 mm 0.02 in0.5 mm
08:30 AM 75.0°F23.9°C 57.3°F14.1°C 54% 1.0 mph SSW1.6 kmh SSW 5.0 mph8.0 kmh 30.16 in1021.3 mb - 0.00 in0.0 mm 0.02 in0.5 mm
08:40 AM 73.7°F23.2°C 56.0°F13.3°C 54% 3.0 mph WSW4.8 kmh WSW 7.0 mph11.3 kmh 30.16 in1021.3 mb - 0.00 in0.0 mm 0.02 in0.5 mm
08:50 AM 71.7°F22.1°C 56.1°F13.4°C 58% Calm Calm -- 30.16 in1021.3 mb - 0.00 in0.0 mm 0.02 in0.5 mm
09:00 AM 72.9°F22.7°C 57.3°F14.1°C 58% 2.0 mph S3.2 kmh S 3.0 mph4.8 kmh 30.16 in1021.3 mb - 0.00 in0.0 mm 0.02 in0.5 mm
09:10 AM 76.1°F24.5°C 56.7°F13.7°C 51% 3.0 mph S4.8 kmh S 5.0 mph8.0 kmh 30.15 in1021.0 mb - 0.00 in0.0 mm 0.02 in0.5 mm
09:20 AM 77.4°F25.2°C 56.7°F13.7°C 49% 3.0 mph S4.8 kmh S 6.0 mph9.7 kmh 30.15 in1021.0 mb - 0.00 in0.0 mm 0.02 in0.5 mm
09:30 AM 77.9°F25.5°C 56.0°F13.3°C 47% 3.0 mph SW4.8 kmh SW 6.0 mph9.7 kmh 30.15 in1021.0 mb - 0.00 in0.0 mm 0.02 in0.5 mm
09:40 AM 78.5°F25.8°C 56.0°F13.3°C 46% 7.0 mph S11.3 kmh S 9.0 mph14.5 kmh 30.15 in1021.0 mb - 0.00 in0.0 mm 0.02 in0.5 mm
09:50 AM 79.3°F26.3°C 54.9°F12.7°C 43% 3.0 mph SSW4.8 kmh SSW 8.0 mph12.9 kmh 30.14 in1020.7 mb - 0.00 in0.0 mm 0.02 in0.5 mm
10:00 AM 69.6°F20.9°C 46.7°F8.2°C 44% 1.7 mph SW2.7 kmh SW 3.0 mph4.8 kmh 30.12 in1020.0 mb - 0.00 in0.0 mm 0.03 in0.8 mm
10:10 AM 79.7°F26.5°C 54.6°F12.6°C 42% 5.0 mph S8.0 kmh S 6.0 mph9.7 kmh 30.14 in1020.7 mb - 0.00 in0.0 mm 0.02 in0.5 mm
10:20 AM 79.7°F26.5°C 55.8°F13.2°C 44% 2.0 mph SE3.2 kmh SE 5.0 mph8.0 kmh 30.14 in1020.7 mb - 0.00 in0.0 mm 0.02 in0.5 mm
10:30 AM 81.1°F27.3°C 53.1°F11.7°C 38% 3.0 mph S4.8 kmh S 8.0 mph12.9 kmh 30.13 in1020.3 mb - 0.00 in0.0 mm 0.02 in0.5 mm
10:40 AM 81.5°F27.5°C 52.7°F11.5°C 37% 6.0 mph SSW9.7 kmh SSW 10.0 mph16.1 kmh 30.13 in1020.3 mb - 0.00 in0.0 mm 0.02 in0.5 mm
10:50 AM 82.1°F27.8°C 51.8°F11.0°C 35% 7.0 mph SSW11.3 kmh SSW 8.0 mph12.9 kmh 30.13 in1020.3 mb - 0.00 in0.0 mm 0.02 in0.5 mm
11:00 AM 80.6°F27.0°C 51.9°F11.1°C 37% 7.0 mph SSW11.3 kmh SSW 10.0 mph16.1 kmh 30.12 in1020.0 mb - 0.00 in0.0 mm 0.02 in0.5 mm
11:10 AM 80.1°F26.7°C 52.2°F11.2°C 38% 6.0 mph SW9.7 kmh SW 7.0 mph11.3 kmh 30.12 in1020.0 mb - 0.00 in0.0 mm 0.02 in0.5 mm
11:20 AM 81.4°F27.4°C 53.4°F11.9°C 38% 3.0 mph S4.8 kmh S 8.0 mph12.9 kmh 30.11 in1019.6 mb - 0.00 in0.0 mm 0.02 in0.5 mm
11:30 AM 81.4°F27.4°C 51.1°F10.6°C 35% 10.0 mph S16.1 kmh S 17.0 mph27.4 kmh 30.11 in1019.6 mb - 0.00 in0.0 mm 0.02 in0.5 mm
11:40 AM 78.5°F25.8°C 50.8°F10.4°C 38% 8.0 mph SW12.9 kmh SW 13.0 mph20.9 kmh 30.11 in1019.6 mb - 0.00 in0.0 mm 0.02 in0.5 mm
11:50 AM 79.5°F26.4°C 51.7°F10.9°C 38% 6.0 mph SW9.7 kmh SW 6.0 mph9.7 kmh 30.11 in1019.6 mb - 0.00 in0.0 mm 0.02 in0.5 mm
12:00 PM 82.0°F27.8°C 50.8°F10.4°C 34% 9.0 mph SW14.5 kmh SW 13.0 mph20.9 kmh 30.10 in1019.3 mb - 0.00 in0.0 mm 0.02 in0.5 mm
12:10 PM 82.3°F27.9°C 51.2°F10.7°C 34% 8.0 mph SW12.9 kmh SW 10.0 mph16.1 kmh 30.10 in1019.3 mb - 0.00 in0.0 mm 0.02 in0.5 mm
12:20 PM 80.7°F27.1°C 50.5°F10.3°C 35% 7.0 mph WSW11.3 kmh WSW 14.0 mph22.5 kmh 30.10 in1019.3 mb - 0.00 in0.0 mm 0.02 in0.5 mm
12:30 PM 81.6°F27.6°C 51.3°F10.7°C 35% 9.0 mph SSW14.5 kmh SSW 13.0 mph20.9 kmh 30.10 in1019.3 mb - 0.00 in0.0 mm 0.02 in0.5 mm
12:40 PM 82.9°F28.3°C 51.6°F10.9°C 34% 9.0 mph SSW14.5 kmh SSW 14.0 mph22.5 kmh 30.09 in1019.0 mb - 0.00 in0.0 mm 0.02 in0.5 mm
12:50 PM 83.9°F28.8°C 50.0°F10.0°C 31% 9.0 mph SW14.5 kmh SW 10.0 mph16.1 kmh 30.09 in1019.0 mb - 0.00 in0.0 mm 0.02 in0.5 mm
01:00 PM 81.5°F27.5°C 49.6°F9.8°C 33% 8.0 mph WSW12.9 kmh WSW 12.0 mph19.3 kmh 30.09 in1019.0 mb - 0.00 in0.0 mm 0.02 in0.5 mm
01:10 PM 80.6°F27.0°C 48.8°F9.3°C 33% 9.0 mph SSW14.5 kmh SSW 12.0 mph19.3 kmh 30.09 in1019.0 mb - 0.00 in0.0 mm 0.02 in0.5 mm
01:20 PM 79.9°F26.6°C 49.8°F9.9°C 35% 8.0 mph SW12.9 kmh SW 10.0 mph16.1 kmh 30.09 in1019.0 mb - 0.00 in0.0 mm 0.02 in0.5 mm
01:30 PM 80.0°F26.7°C 50.6°F10.3°C 36% 9.0 mph SW14.5 kmh SW 14.0 mph22.5 kmh 30.09 in1019.0 mb - 0.00 in0.0 mm 0.02 in0.5 mm
01:40 PM 81.6°F27.6°C 52.1°F11.2°C 36% 5.0 mph WSW8.0 kmh WSW 13.0 mph20.9 kmh 30.09 in1019.0 mb - 0.00 in0.0 mm 0.02 in0.5 mm
01:50 PM 79.3°F26.3°C 50.7°F10.4°C 37% 9.0 mph WSW14.5 kmh WSW 15.0 mph24.1 kmh 30.09 in1019.0 mb - 0.00 in0.0 mm 0.02 in0.5 mm
02:00 PM 79.9°F26.6°C 52.1°F11.2°C 38% 9.0 mph WSW14.5 kmh WSW 15.0 mph24.1 kmh 30.09 in1019.0 mb - 0.00 in0.0 mm 0.02 in0.5 mm
02:10 PM 82.1°F27.8°C 51.7°F10.9°C 35% 8.0 mph WSW12.9 kmh WSW 15.0 mph24.1 kmh 30.08 in1018.6 mb - 0.00 in0.0 mm 0.02 in0.5 mm
02:20 PM 80.9°F27.2°C 50.7°F10.4°C 35% 7.0 mph WSW11.3 kmh WSW 12.0 mph19.3 kmh 30.08 in1018.6 mb - 0.00 in0.0 mm 0.02 in0.5 mm
02:30 PM 80.7°F27.1°C 50.5°F10.3°C 35% 9.0 mph W14.5 kmh W 14.0 mph22.5 kmh 30.08 in1018.6 mb - 0.00 in0.0 mm 0.02 in0.5 mm
02:40 PM 80.9°F27.2°C 51.5°F10.8°C 36% 6.0 mph WSW9.7 kmh WSW 12.0 mph19.3 kmh 30.07 in1018.3 mb - 0.00 in0.0 mm 0.02 in0.5 mm
02:50 PM 82.7°F28.2°C 50.7°F10.4°C 33% 9.0 mph SW14.5 kmh SW 12.0 mph19.3 kmh 30.08 in1018.6 mb - 0.00 in0.0 mm 0.02 in0.5 mm
03:00 PM 83.1°F28.4°C 49.4°F9.7°C 31% 12.0 mph WSW19.3 kmh WSW 17.0 mph27.4 kmh 30.07 in1018.3 mb - 0.00 in0.0 mm 0.02 in0.5 mm
03:10 PM 82.5°F28.1°C 48.8°F9.3°C 31% 7.0 mph WSW11.3 kmh WSW 10.0 mph16.1 kmh 30.07 in1018.3 mb - 0.00 in0.0 mm 0.02 in0.5 mm
03:20 PM 80.8°F27.1°C 47.3°F8.5°C 31% 9.0 mph WSW14.5 kmh WSW 14.0 mph22.5 kmh 30.07 in1018.3 mb - 0.00 in0.0 mm 0.02 in0.5 mm
03:30 PM 82.1°F27.8°C 47.6°F8.7°C 30% 14.0 mph SW22.5 kmh SW 18.0 mph29.0 kmh 30.07 in1018.3 mb - 0.00 in0.0 mm 0.02 in0.5 mm
03:40 PM 83.0°F28.3°C 47.5°F8.6°C 29% 12.0 mph WNW19.3 kmh WNW 18.0 mph29.0 kmh 30.07 in1018.3 mb - 0.00 in0.0 mm 0.02 in0.5 mm
03:50 PM 81.6°F27.6°C 46.3°F7.9°C 29% 12.0 mph WSW19.3 kmh WSW 13.0 mph20.9 kmh 30.07 in1018.3 mb - 0.00 in0.0 mm 0.02 in0.5 mm
04:00 PM 80.7°F27.1°C 46.4°F8.0°C 30% 9.0 mph SW14.5 kmh SW 13.0 mph20.9 kmh 30.07 in1018.3 mb - 0.00 in0.0 mm 0.02 in0.5 mm
04:10 PM 81.0°F27.2°C 45.7°F7.6°C 29% 10.0 mph SW16.1 kmh SW 13.0 mph20.9 kmh 30.07 in1018.3 mb - 0.00 in0.0 mm 0.02 in0.5 mm
04:20 PM 81.4°F27.4°C 45.2°F7.3°C 28% 6.0 mph SW9.7 kmh SW 12.0 mph19.3 kmh 30.07 in1018.3 mb - 0.00 in0.0 mm 0.02 in0.5 mm
04:30 PM 74.7°F23.7°C 37.5°F3.1°C 26% 7.9 mph WNW12.7 kmh WNW 14.0 mph22.5 kmh 30.05 in1017.6 mb - 0.00 in0.0 mm 0.03 in0.8 mm
04:50 PM 81.2°F27.3°C 44.0°F6.7°C 27% 9.0 mph SW14.5 kmh SW 16.0 mph25.7 kmh 30.07 in1018.3 mb - 0.00 in0.0 mm 0.02 in0.5 mm
05:00 PM 81.8°F27.7°C 43.6°F6.4°C 26% 10.0 mph WSW16.1 kmh WSW 14.0 mph22.5 kmh 30.07 in1018.3 mb - 0.00 in0.0 mm 0.02 in0.5 mm
05:10 PM 81.5°F27.5°C 44.3°F6.8°C 27% 7.0 mph W11.3 kmh W 12.0 mph19.3 kmh 30.07 in1018.3 mb - 0.00 in0.0 mm 0.02 in0.5 mm
05:20 PM 81.0°F27.2°C 43.9°F6.6°C 27% 8.0 mph SW12.9 kmh SW 12.0 mph19.3 kmh 30.07 in1018.3 mb - 0.00 in0.0 mm 0.02 in0.5 mm
05:30 PM 80.2°F26.8°C 43.2°F6.2°C 27% 8.0 mph W12.9 kmh W 12.0 mph19.3 kmh 30.07 in1018.3 mb - 0.00 in0.0 mm 0.02 in0.5 mm
05:40 PM 78.8°F26.0°C 42.9°F6.1°C 28% 10.0 mph WSW16.1 kmh WSW 14.0 mph22.5 kmh 30.07 in1018.3 mb - 0.00 in0.0 mm 0.02 in0.5 mm
05:50 PM 77.8°F25.4°C 43.0°F6.1°C 29% 9.0 mph WSW14.5 kmh WSW 13.0 mph20.9 kmh 30.07 in1018.3 mb - 0.00 in0.0 mm 0.02 in0.5 mm
06:00 PM 77.6°F25.3°C 43.7°F6.5°C 30% 9.0 mph W14.5 kmh W 13.0 mph20.9 kmh 30.07 in1018.3 mb - 0.00 in0.0 mm 0.02 in0.5 mm
06:10 PM 77.4°F25.2°C 43.5°F6.4°C 30% 10.0 mph W16.1 kmh W 12.0 mph19.3 kmh 30.08 in1018.6 mb - 0.00 in0.0 mm 0.02 in0.5 mm
06:20 PM 76.9°F24.9°C 44.0°F6.7°C 31% 8.0 mph WNW12.9 kmh WNW 13.0 mph20.9 kmh 30.07 in1018.3 mb - 0.00 in0.0 mm 0.02 in0.5 mm
06:30 PM 71.4°F21.9°C 35.7°F2.1°C 27% 7.5 mph WNW12.1 kmh WNW 12.0 mph19.3 kmh 30.05 in1017.6 mb - 0.00 in0.0 mm 0.03 in0.8 mm
06:40 PM 75.5°F24.2°C 45.2°F7.3°C 34% 8.0 mph W12.9 kmh W 12.0 mph19.3 kmh 30.08 in1018.6 mb - 0.00 in0.0 mm 0.02 in0.5 mm
06:50 PM 74.8°F23.8°C 45.3°F7.4°C 35% 8.0 mph W12.9 kmh W 9.0 mph14.5 kmh 30.08 in1018.6 mb - 0.00 in0.0 mm 0.02 in0.5 mm
07:00 PM 74.2°F23.4°C 45.6°F7.6°C 36% 6.0 mph W9.7 kmh W 9.0 mph14.5 kmh 30.08 in1018.6 mb - 0.00 in0.0 mm 0.02 in0.5 mm
07:10 PM 73.3°F22.9°C 45.5°F7.5°C 37% 3.0 mph W4.8 kmh W 7.0 mph11.3 kmh 30.09 in1019.0 mb - 0.00 in0.0 mm 0.02 in0.5 mm
07:30 PM 67.9°F19.9°C 36.9°F2.7°C 32% 3.3 mph W5.3 kmh W 5.0 mph8.0 kmh 30.07 in1018.3 mb - 0.00 in0.0 mm 0.03 in0.8 mm
08:00 PM 65.8°F18.8°C 38.8°F3.8°C 37% 1.0 mph WNW1.6 kmh WNW 3.0 mph4.8 kmh 30.08 in1018.6 mb - 0.00 in0.0 mm 0.03 in0.8 mm
08:30 PM 62.3°F16.8°C 40.1°F4.5°C 44% Calm Calm -- 30.08 in1018.6 mb - 0.00 in0.0 mm 0.03 in0.8 mm
09:00 PM 59.6°F15.3°C 42.4°F5.8°C 53% Calm Calm -- 30.09 in1019.0 mb - 0.00 in0.0 mm 0.03 in0.8 mm
09:30 PM 57.3°F14.1°C 43.5°F6.4°C 60% Calm Calm -- 30.09 in1019.0 mb - 0.00 in0.0 mm 0.03 in0.8 mm
10:00 PM 56.3°F13.5°C 48.8°F9.3°C 76% Calm Calm -- 30.09 in1019.0 mb - 0.00 in0.0 mm 0.03 in0.8 mm
10:30 PM 55.3°F12.9°C 49.2°F9.6°C 80% Calm Calm -- 30.10 in1019.3 mb - 0.00 in0.0 mm 0.03 in0.8 mm
11:00 PM 54.5°F12.5°C 49.8°F9.9°C 84% Calm Calm -- 30.11 in1019.6 mb - 0.00 in0.0 mm 0.02 in0.5 mm
11:30 PM 53.6°F12.0°C 49.2°F9.6°C 85% Calm Calm -- 30.11 in1019.6 mb - 0.00 in0.0 mm 0.02 in0.5 mm